sensor_id;sensor_type;location;lat;lon;timestamp;pressure;altitude;pressure_sealevel;temperature;humidity
78741;BME280;68062;48.726;9.370;2023-10-13T00:02:09;98845.28;;;14.90;97.21
78741;BME280;68062;48.726;9.370;2023-10-13T00:04:36;98839.13;;;14.97;96.14
78741;BME280;68062;48.726;9.370;2023-10-13T00:07:03;98835.69;;;14.95;97.38
78741;BME280;68062;48.726;9.370;2023-10-13T00:09:36;98829.59;;;14.99;96.28
78741;BME280;68062;48.726;9.370;2023-10-13T00:12:04;98830.63;;;14.91;97.31
78741;BME280;68062;48.726;9.370;2023-10-13T00:14:34;98832.50;;;14.82;97.86
78741;BME280;68062;48.726;9.370;2023-10-13T00:17:02;98833.56;;;14.69;99.82
78741;BME280;68062;48.726;9.370;2023-10-13T00:19:30;98833.03;;;14.50;100.00
78741;BME280;68062;48.726;9.370;2023-10-13T00:22:04;98838.03;;;14.59;100.00
78741;BME280;68062;48.726;9.370;2023-10-13T00:24:37;98833.97;;;14.46;100.00
78741;BME280;68062;48.726;9.370;2023-10-13T00:27:10;98823.03;;;14.28;100.00
78741;BME280;68062;48.726;9.370;2023-10-13T00:29:55;98816.69;;;14.48;100.00
78741;BME280;68062;48.726;9.370;2023-10-13T00:32:36;98818.50;;;14.42;100.00
78741;BME280;68062;48.726;9.370;2023-10-13T00:35:06;98816.84;;;14.37;100.00
78741;BME280;68062;48.726;9.370;2023-10-13T00:37:37;98812.06;;;14.12;100.00
78741;BME280;68062;48.726;9.370;2023-10-13T00:40:11;98817.59;;;13.87;100.00
78741;BME280;68062;48.726;9.370;2023-10-13T00:43:03;98782.69;;;13.58;100.00
78741;BME280;68062;48.726;9.370;2023-10-13T00:45:52;98811.41;;;13.97;100.00
78741;BME280;68062;48.726;9.370;2023-10-13T00:48:23;98805.06;;;13.59;100.00
78741;BME280;68062;48.726;9.370;2023-10-13T00:50:56;98817.09;;;13.62;100.00
78741;BME280;68062;48.726;9.370;2023-10-13T00:53:23;98816.34;;;13.52;100.00
78741;BME280;68062;48.726;9.370;2023-10-13T00:55:53;98817.22;;;13.51;100.00
78741;BME280;68062;48.726;9.370;2023-10-13T00:58:21;98820.69;;;13.50;100.00
78741;BME280;68062;48.726;9.370;2023-10-13T01:00:49;98822.78;;;13.18;100.00
78741;BME280;68062;48.726;9.370;2023-10-13T01:03:22;98826.13;;;13.27;100.00
78741;BME280;68062;48.726;9.370;2023-10-13T01:05:54;98823.44;;;13.36;100.00
78741;BME280;68062;48.726;9.370;2023-10-13T01:08:31;98822.78;;;13.20;100.00
78741;BME280;68062;48.726;9.370;2023-10-13T01:11:05;98825.25;;;13.28;100.00
78741;BME280;68062;48.726;9.370;2023-10-13T01:13:33;98819.22;;;13.29;100.00
78741;BME280;68062;48.726;9.370;2023-10-13T01:16:02;98821.31;;;12.92;100.00
78741;BME280;68062;48.726;9.370;2023-10-13T01:18:28;98817.19;;;12.76;100.00
78741;BME280;68062;48.726;9.370;2023-10-13T01:20:55;98821.16;;;13.08;100.00
78741;BME280;68062;48.726;9.370;2023-10-13T01:27:50;98816.34;;;12.75;100.00
78741;BME280;68062;48.726;9.370;2023-10-13T01:30:17;98809.72;;;12.49;100.00
78741;BME280;68062;48.726;9.370;2023-10-13T01:32:48;98800.06;;;12.69;100.00
78741;BME280;68062;48.726;9.370;2023-10-13T01:35:17;98799.97;;;12.79;100.00
78741;BME280;68062;48.726;9.370;2023-10-13T01:37:44;98802.75;;;12.58;100.00
78741;BME280;68062;48.726;9.370;2023-10-13T01:40:11;98808.03;;;12.45;100.00
78741;BME280;68062;48.726;9.370;2023-10-13T01:42:38;98806.38;;;12.38;100.00
78741;BME280;68062;48.726;9.370;2023-10-13T01:45:07;98810.78;;;12.24;100.00
78741;BME280;68062;48.726;9.370;2023-10-13T01:47:33;98803.06;;;12.20;100.00
78741;BME280;68062;48.726;9.370;2023-10-13T01:50:00;98799.66;;;12.17;100.00
78741;BME280;68062;48.726;9.370;2023-10-13T01:52:38;98804.75;;;12.28;100.00
78741;BME280;68062;48.726;9.370;2023-10-13T01:55:08;98806.41;;;12.30;100.00
78741;BME280;68062;48.726;9.370;2023-10-13T01:57:35;98808.94;;;12.36;100.00
78741;BME280;68062;48.726;9.370;2023-10-13T02:00:03;98807.38;;;12.17;100.00
78741;BME280;68062;48.726;9.370;2023-10-13T02:02:39;98801.53;;;11.91;100.00
78741;BME280;68062;48.726;9.370;2023-10-13T02:05:11;98807.69;;;11.70;100.00
78741;BME280;68062;48.726;9.370;2023-10-13T02:07:37;98806.75;;;11.81;100.00
78741;BME280;68062;48.726;9.370;2023-10-13T02:10:11;98763.09;;;11.62;100.00
78741;BME280;68062;48.726;9.370;2023-10-13T02:12:38;98799.72;;;12.07;100.00
78741;BME280;68062;48.726;9.370;2023-10-13T02:15:10;98798.06;;;11.96;100.00
78741;BME280;68062;48.726;9.370;2023-10-13T02:17:47;98796.41;;;11.90;100.00
78741;BME280;68062;48.726;9.370;2023-10-13T02:20:17;98792.22;;;11.73;100.00
78741;BME280;68062;48.726;9.370;2023-10-13T02:22:44;98789.66;;;11.66;100.00
78741;BME280;68062;48.726;9.370;2023-10-13T02:25:15;98788.72;;;11.84;100.00
78741;BME280;68062;48.726;9.370;2023-10-13T02:27:44;98780.88;;;11.98;100.00
78741;BME280;68062;48.726;9.370;2023-10-13T02:30:24;98779.22;;;11.89;100.00
78741;BME280;68062;48.726;9.370;2023-10-13T02:32:52;98778.56;;;11.57;100.00
78741;BME280;68062;48.726;9.370;2023-10-13T02:35:21;98777.66;;;11.65;100.00
78741;BME280;68062;48.726;9.370;2023-10-13T02:37:56;98734.00;;;11.41;100.00
78741;BME280;68062;48.726;9.370;2023-10-13T02:41:00;98776.91;;;11.44;100.00
78741;BME280;68062;48.726;9.370;2023-10-13T02:44:10;98769.13;;;11.56;100.00
78741;BME280;68062;48.726;9.370;2023-10-13T02:46:45;98767.41;;;11.57;100.00
78741;BME280;68062;48.726;9.370;2023-10-13T02:49:16;98761.34;;;11.64;100.00
78741;BME280;68062;48.726;9.370;2023-10-13T02:51:44;98763.88;;;11.69;100.00
78741;BME280;68062;48.726;9.370;2023-10-13T02:54:10;98768.34;;;11.39;100.00
78741;BME280;68062;48.726;9.370;2023-10-13T02:56:43;98756.38;;;11.30;100.00
78741;BME280;68062;48.726;9.370;2023-10-13T02:59:15;98765.81;;;11.34;100.00
78741;BME280;68062;48.726;9.370;2023-10-13T03:01:45;98755.41;;;11.53;100.00
78741;BME280;68062;48.726;9.370;2023-10-13T03:04:10;98752.00;;;11.51;100.00
78741;BME280;68062;48.726;9.370;2023-10-13T03:06:39;98754.59;;;11.43;100.00
78741;BME280;68062;48.726;9.370;2023-10-13T03:09:07;98756.38;;;11.30;100.00
78741;BME280;68062;48.726;9.370;2023-10-13T03:11:40;98750.41;;;11.23;100.00
78741;BME280;68062;48.726;9.370;2023-10-13T03:14:14;98748.78;;;10.97;100.00
78741;BME280;68062;48.726;9.370;2023-10-13T03:16:50;98749.63;;;10.99;100.00
78741;BME280;68062;48.726;9.370;2023-10-13T03:19:16;98711.16;;;10.70;100.00
78741;BME280;68062;48.726;9.370;2023-10-13T03:21:45;98710.34;;;10.52;100.00
78741;BME280;68062;48.726;9.370;2023-10-13T03:24:20;98744.53;;;10.92;100.00
78741;BME280;68062;48.726;9.370;2023-10-13T03:26:58;98748.00;;;10.78;100.00
78741;BME280;68062;48.726;9.370;2023-10-13T03:29:24;98748.78;;;10.99;100.00
78741;BME280;68062;48.726;9.370;2023-10-13T03:31:56;98749.59;;;11.10;100.00
78741;BME280;68062;48.726;9.370;2023-10-13T03:34:32;98748.81;;;10.85;100.00
78741;BME280;68062;48.726;9.370;2023-10-13T03:37:01;98745.38;;;11.00;100.00
78741;BME280;68062;48.726;9.370;2023-10-13T03:39:37;98744.50;;;10.98;100.00
78741;BME280;68062;48.726;9.370;2023-10-13T03:42:03;98740.22;;;11.00;100.00
78741;BME280;68062;48.726;9.370;2023-10-13T03:44:36;98736.78;;;11.04;100.00
78741;BME280;68062;48.726;9.370;2023-10-13T03:47:04;98737.59;;;11.11;100.00
78741;BME280;68062;48.726;9.370;2023-10-13T03:49:44;98741.09;;;10.93;100.00
78741;BME280;68062;48.726;9.370;2023-10-13T03:52:11;98745.44;;;10.72;100.00
78741;BME280;68062;48.726;9.370;2023-10-13T03:54:39;98743.75;;;10.71;100.00
78741;BME280;68062;48.726;9.370;2023-10-13T03:57:06;98737.72;;;10.81;100.00
78741;BME280;68062;48.726;9.370;2023-10-13T03:59:37;98739.47;;;10.64;100.00
78741;BME280;68062;48.726;9.370;2023-10-13T04:02:05;98742.97;;;10.39;100.00
78741;BME280;68062;48.726;9.370;2023-10-13T04:04:37;98713.78;;;10.45;100.00
78741;BME280;68062;48.726;9.370;2023-10-13T04:07:15;98742.84;;;10.80;100.00
78741;BME280;68062;48.726;9.370;2023-10-13T04:09:55;98736.84;;;10.74;100.00
78741;BME280;68062;48.726;9.370;2023-10-13T04:12:39;98747.16;;;10.70;100.00
78741;BME280;68062;48.726;9.370;2023-10-13T04:15:23;98739.44;;;10.74;100.00
78741;BME280;68062;48.726;9.370;2023-10-13T04:18:02;98743.75;;;10.62;100.00
78741;BME280;68062;48.726;9.370;2023-10-13T04:20:39;98744.63;;;10.51;100.00
78741;BME280;68062;48.726;9.370;2023-10-13T04:23:12;98736.06;;;10.37;100.00
78741;BME280;68062;48.726;9.370;2023-10-13T04:25:48;98746.34;;;10.58;100.00
78741;BME280;68062;48.726;9.370;2023-10-13T04:28:46;98741.22;;;10.57;100.00
78741;BME280;68062;48.726;9.370;2023-10-13T04:31:23;98742.94;;;10.49;100.00
78741;BME280;68062;48.726;9.370;2023-10-13T04:34:06;98740.38;;;10.19;100.00
78741;BME280;68062;48.726;9.370;2023-10-13T04:36:41;98739.53;;;10.00;100.00
78741;BME280;68062;48.726;9.370;2023-10-13T04:39:12;98741.22;;;10.29;100.00
78741;BME280;68062;48.726;9.370;2023-10-13T04:41:54;98734.38;;;10.37;100.00
78741;BME280;68062;48.726;9.370;2023-10-13T04:44:23;98730.06;;;10.38;100.00
78741;BME280;68062;48.726;9.370;2023-10-13T04:47:04;98724.06;;;10.26;100.00
78741;BME280;68062;48.726;9.370;2023-10-13T04:49:46;98728.38;;;10.35;100.00
78741;BME280;68062;48.726;9.370;2023-10-13T04:52:16;98724.09;;;10.45;100.00
78741;BME280;68062;48.726;9.370;2023-10-13T04:55:06;98718.94;;;10.47;100.00
78741;BME280;68062;48.726;9.370;2023-10-13T04:57:59;98715.53;;;10.40;100.00
78741;BME280;68062;48.726;9.370;2023-10-13T05:00:40;98718.09;;;10.44;100.00
78741;BME280;68062;48.726;9.370;2023-10-13T05:03:21;98726.66;;;10.28;100.00
78741;BME280;68062;48.726;9.370;2023-10-13T05:06:19;98718.97;;;10.22;100.00
78741;BME280;68062;48.726;9.370;2023-10-13T05:09:02;98719.81;;;10.30;100.00
78741;BME280;68062;48.726;9.370;2023-10-13T05:11:48;98673.56;;;10.10;100.00
78741;BME280;68062;48.726;9.370;2023-10-13T05:14:32;98713.81;;;10.14;100.00
78741;BME280;68062;48.726;9.370;2023-10-13T05:17:16;98711.25;;;10.03;100.00
78741;BME280;68062;48.726;9.370;2023-10-13T05:20:00;98716.41;;;10.03;100.00
78741;BME280;68062;48.726;9.370;2023-10-13T05:22:45;98709.53;;;9.94;100.00
78741;BME280;68062;48.726;9.370;2023-10-13T05:25:29;98715.53;;;9.93;100.00
78741;BME280;68062;48.726;9.370;2023-10-13T05:28:15;98707.81;;;10.09;100.00
78741;BME280;68062;48.726;9.370;2023-10-13T05:30:59;98705.25;;;9.99;100.00
78741;BME280;68062;48.726;9.370;2023-10-13T05:33:43;98711.25;;;10.00;100.00
78741;BME280;68062;48.726;9.370;2023-10-13T05:36:28;98705.25;;;10.10;100.00
78741;BME280;68062;48.726;9.370;2023-10-13T05:39:12;98695.84;;;10.09;100.00
78741;BME280;68062;48.726;9.370;2023-10-13T05:41:56;98702.69;;;10.12;100.00
78741;BME280;68062;48.726;9.370;2023-10-13T05:44:42;98704.41;;;9.86;100.00
78741;BME280;68062;48.726;9.370;2023-10-13T05:47:22;98696.72;;;9.86;100.00
78741;BME280;68062;48.726;9.370;2023-10-13T05:50:06;98702.69;;;10.12;100.00
78741;BME280;68062;48.726;9.370;2023-10-13T05:52:54;98700.09;;;10.21;100.00
78741;BME280;68062;48.726;9.370;2023-10-13T05:55:38;98700.13;;;10.02;100.00
78741;BME280;68062;48.726;9.370;2023-10-13T05:58:22;98696.69;;;10.07;100.00
78741;BME280;68062;48.726;9.370;2023-10-13T06:01:12;98705.25;;;10.26;100.00
78741;BME280;68062;48.726;9.370;2023-10-13T06:03:56;98714.63;;;10.38;100.00
78741;BME280;68062;48.726;9.370;2023-10-13T06:06:40;98708.66;;;10.34;100.00
78741;BME280;68062;48.726;9.370;2023-10-13T06:09:25;98711.25;;;10.43;100.00
78741;BME280;68062;48.726;9.370;2023-10-13T06:12:09;98710.38;;;10.49;100.00
78741;BME280;68062;48.726;9.370;2023-10-13T06:14:53;98714.59;;;10.67;100.00
78741;BME280;68062;48.726;9.370;2023-10-13T06:17:44;98712.81;;;10.85;100.00
78741;BME280;68062;48.726;9.370;2023-10-13T06:20:29;98710.19;;;11.02;100.00
78741;BME280;68062;48.726;9.370;2023-10-13T06:23:13;98722.88;;;11.39;100.00
78741;BME280;68062;48.726;9.370;2023-10-13T06:25:57;98727.94;;;11.50;100.00
78741;BME280;68062;48.726;9.370;2023-10-13T06:28:41;98703.88;;;11.59;100.00
78741;BME280;68062;48.726;9.370;2023-10-13T06:31:09;98723.47;;;11.78;100.00
78741;BME280;68062;48.726;9.370;2023-10-13T06:33:41;98722.47;;;11.95;100.00
78741;BME280;68062;48.726;9.370;2023-10-13T06:36:10;98706.88;;;12.14;100.00
78741;BME280;68062;48.726;9.370;2023-10-13T06:38:37;98711.72;;;12.46;100.00
78741;BME280;68062;48.726;9.370;2023-10-13T06:41:04;98708.13;;;12.63;99.55
78741;BME280;68062;48.726;9.370;2023-10-13T06:43:31;98700.16;;;12.82;95.58
78741;BME280;68062;48.726;9.370;2023-10-13T06:46:05;98719.03;;;12.87;97.03
78741;BME280;68062;48.726;9.370;2023-10-13T06:48:32;98716.38;;;12.91;97.52
78741;BME280;68062;48.726;9.370;2023-10-13T06:51:01;98718.13;;;12.91;96.84
78741;BME280;68062;48.726;9.370;2023-10-13T06:53:43;98711.97;;;13.00;97.34
78741;BME280;68062;48.726;9.370;2023-10-13T06:56:12;98712.25;;;13.45;93.27
78741;BME280;68062;48.726;9.370;2023-10-13T06:58:43;98713.50;;;13.77;90.17
78741;BME280;68062;48.726;9.370;2023-10-13T07:01:12;98714.16;;;13.92;89.23
78741;BME280;68062;48.726;9.370;2023-10-13T07:03:40;98705.53;;;13.91;89.54
78741;BME280;68062;48.726;9.370;2023-10-13T07:06:08;98716.69;;;13.93;89.86
78741;BME280;68062;48.726;9.370;2023-10-13T07:08:37;98669.69;;;13.69;88.57
78741;BME280;68062;48.726;9.370;2023-10-13T07:11:04;98719.69;;;13.67;91.00
78741;BME280;68062;48.726;9.370;2023-10-13T07:13:33;98653.59;;;13.52;88.79
78741;BME280;68062;48.726;9.370;2023-10-13T07:16:04;98713.19;;;13.97;86.69
78741;BME280;68062;48.726;9.370;2023-10-13T07:18:33;98701.03;;;14.04;87.60
78741;BME280;68062;48.726;9.370;2023-10-13T07:21:03;98710.28;;;14.16;87.65
78741;BME280;68062;48.726;9.370;2023-10-13T07:23:36;98710.72;;;14.41;85.60
78741;BME280;68062;48.726;9.370;2023-10-13T07:26:05;98710.94;;;15.19;82.49
78741;BME280;68062;48.726;9.370;2023-10-13T07:28:34;98671.56;;;16.14;77.33
78741;BME280;68062;48.726;9.370;2023-10-13T07:31:02;98713.19;;;18.20;68.79
78741;BME280;68062;48.726;9.370;2023-10-13T07:33:38;98712.13;;;18.75;64.93
78741;BME280;68062;48.726;9.370;2023-10-13T07:36:07;98704.88;;;19.75;62.54
78741;BME280;68062;48.726;9.370;2023-10-13T07:38:43;98703.38;;;20.94;56.57
78741;BME280;68062;48.726;9.370;2023-10-13T07:41:14;98706.09;;;21.48;55.35
78741;BME280;68062;48.726;9.370;2023-10-13T07:43:41;98712.91;;;22.24;52.90
78741;BME280;68062;48.726;9.370;2023-10-13T07:46:08;98704.81;;;23.30;49.83
78741;BME280;68062;48.726;9.370;2023-10-13T07:48:36;98705.22;;;23.54;48.03
78741;BME280;68062;48.726;9.370;2023-10-13T07:51:05;98711.28;;;23.06;48.94
78741;BME280;68062;48.726;9.370;2023-10-13T07:53:35;98706.53;;;23.77;48.04
78741;BME280;68062;48.726;9.370;2023-10-13T07:56:06;98695.50;;;24.77;45.78
78741;BME280;68062;48.726;9.370;2023-10-13T07:58:34;98699.91;;;24.76;44.87
78741;BME280;68062;48.726;9.370;2023-10-13T08:01:12;98687.38;;;25.51;43.49
78741;BME280;68062;48.726;9.370;2023-10-13T08:03:42;98689.00;;;24.82;44.50
78741;BME280;68062;48.726;9.370;2023-10-13T08:06:13;98673.13;;;24.55;44.07
78741;BME280;68062;48.726;9.370;2023-10-13T08:08:47;98685.00;;;23.56;46.80
78741;BME280;68062;48.726;9.370;2023-10-13T08:11:20;98695.88;;;23.16;47.46
78741;BME280;68062;48.726;9.370;2023-10-13T08:13:57;98690.84;;;23.29;47.73
78741;BME280;68062;48.726;9.370;2023-10-13T08:16:26;98676.69;;;23.16;48.65
78741;BME280;68062;48.726;9.370;2023-10-13T08:19:11;98674.88;;;24.40;45.76
78741;BME280;68062;48.726;9.370;2023-10-13T08:21:40;98662.25;;;24.76;44.50
78741;BME280;68062;48.726;9.370;2023-10-13T08:24:15;98660.75;;;24.57;45.19
78741;BME280;68062;48.726;9.370;2023-10-13T08:26:43;98653.84;;;24.98;44.80
78741;BME280;68062;48.726;9.370;2023-10-13T08:29:39;98630.44;;;25.35;44.43
78741;BME280;68062;48.726;9.370;2023-10-13T08:32:31;98656.78;;;24.93;44.54
78741;BME280;68062;48.726;9.370;2023-10-13T08:35:10;98656.44;;;25.40;43.43
78741;BME280;68062;48.726;9.370;2023-10-13T08:37:48;98657.88;;;25.86;43.18
78741;BME280;68062;48.726;9.370;2023-10-13T08:40:27;98648.69;;;27.32;40.71
78741;BME280;68062;48.726;9.370;2023-10-13T08:43:27;98651.47;;;27.18;39.59
78741;BME280;68062;48.726;9.370;2023-10-13T08:46:08;98642.53;;;27.32;37.90
78741;BME280;68062;48.726;9.370;2023-10-13T08:48:50;98636.06;;;27.36;37.71
78741;BME280;68062;48.726;9.370;2023-10-13T08:51:32;98635.00;;;25.86;40.71
78741;BME280;68062;48.726;9.370;2023-10-13T08:54:11;98626.06;;;27.04;38.58
78741;BME280;68062;48.726;9.370;2023-10-13T08:56:45;98621.09;;;27.37;37.66
78741;BME280;68062;48.726;9.370;2023-10-13T08:59:21;98616.63;;;28.09;36.46
78741;BME280;68062;48.726;9.370;2023-10-13T09:02:11;98620.03;;;28.56;35.42
78741;BME280;68062;48.726;9.370;2023-10-13T09:04:42;98601.59;;;29.00;35.04
78741;BME280;68062;48.726;9.370;2023-10-13T09:07:09;98616.06;;;29.83;34.02
78741;BME280;68062;48.726;9.370;2023-10-13T09:09:47;98600.78;;;28.88;34.89
78741;BME280;68062;48.726;9.370;2023-10-13T09:12:37;98611.53;;;29.52;34.22
78741;BME280;68062;48.726;9.370;2023-10-13T09:15:08;98607.63;;;28.91;34.43
78741;BME280;68062;48.726;9.370;2023-10-13T09:17:45;98604.00;;;30.52;32.96
78741;BME280;68062;48.726;9.370;2023-10-13T09:20:18;98595.06;;;31.13;31.52
78741;BME280;68062;48.726;9.370;2023-10-13T09:22:58;98603.78;;;31.65;31.26
78741;BME280;68062;48.726;9.370;2023-10-13T09:25:35;98598.16;;;32.25;29.71
78741;BME280;68062;48.726;9.370;2023-10-13T09:28:01;98603.66;;;32.14;29.96
78741;BME280;68062;48.726;9.370;2023-10-13T09:30:29;98595.50;;;33.45;28.72
78741;BME280;68062;48.726;9.370;2023-10-13T09:33:00;98589.88;;;32.94;29.39
78741;BME280;68062;48.726;9.370;2023-10-13T09:35:28;98583.78;;;31.31;30.82
78741;BME280;68062;48.726;9.370;2023-10-13T09:37:58;98581.09;;;31.80;30.46
78741;BME280;68062;48.726;9.370;2023-10-13T09:40:28;98577.44;;;31.71;30.93
78741;BME280;68062;48.726;9.370;2023-10-13T09:43:00;98566.28;;;31.58;30.32
78741;BME280;68062;48.726;9.370;2023-10-13T09:45:33;98560.06;;;32.25;29.96
78741;BME280;68062;48.726;9.370;2023-10-13T09:48:03;98555.41;;;31.41;30.73
78741;BME280;68062;48.726;9.370;2023-10-13T09:50:36;98544.75;;;30.73;31.52
78741;BME280;68062;48.726;9.370;2023-10-13T09:53:03;98552.47;;;31.35;31.24
78741;BME280;68062;48.726;9.370;2023-10-13T09:55:38;98541.66;;;31.66;30.10
78741;BME280;68062;48.726;9.370;2023-10-13T09:58:11;98546.81;;;30.69;30.60
78741;BME280;68062;48.726;9.370;2023-10-13T10:00:43;98542.00;;;30.02;31.72
78741;BME280;68062;48.726;9.370;2023-10-13T10:03:12;98533.69;;;30.17;31.79
78741;BME280;68062;48.726;9.370;2023-10-13T10:05:58;98538.06;;;30.28;31.67
78741;BME280;68062;48.726;9.370;2023-10-13T10:08:32;98525.44;;;30.20;32.00
78741;BME280;68062;48.726;9.370;2023-10-13T10:11:19;98525.19;;;31.42;30.67
78741;BME280;68062;48.726;9.370;2023-10-13T10:13:52;98515.25;;;32.02;30.08
78741;BME280;68062;48.726;9.370;2023-10-13T10:16:43;98520.78;;;30.53;31.80
78741;BME280;68062;48.726;9.370;2023-10-13T10:19:14;98512.53;;;28.67;36.27
78741;BME280;68062;48.726;9.370;2023-10-13T10:21:40;98509.50;;;28.27;36.05
78741;BME280;68062;48.726;9.370;2023-10-13T10:24:16;98498.50;;;28.55;35.45
78741;BME280;68062;48.726;9.370;2023-10-13T10:26:51;98499.56;;;30.02;33.89
78741;BME280;68062;48.726;9.370;2023-10-13T10:29:17;98500.09;;;31.17;31.67
78741;BME280;68062;48.726;9.370;2023-10-13T10:31:45;98490.09;;;31.96;30.77
78741;BME280;68062;48.726;9.370;2023-10-13T10:34:13;98489.59;;;32.67;30.17
78741;BME280;68062;48.726;9.370;2023-10-13T10:36:40;98490.06;;;33.43;29.33
78741;BME280;68062;48.726;9.370;2023-10-13T10:39:08;98477.75;;;32.33;28.73
78741;BME280;68062;48.726;9.370;2023-10-13T10:41:37;98477.03;;;32.03;27.63
78741;BME280;68062;48.726;9.370;2023-10-13T10:44:11;98466.69;;;31.62;28.02
78741;BME280;68062;48.726;9.370;2023-10-13T10:46:44;98468.06;;;30.79;27.68
78741;BME280;68062;48.726;9.370;2023-10-13T10:49:23;98472.31;;;30.21;28.20
78741;BME280;68062;48.726;9.370;2023-10-13T10:51:58;98462.91;;;29.76;29.84
78741;BME280;68062;48.726;9.370;2023-10-13T10:54:30;98458.63;;;29.54;29.71
78741;BME280;68062;48.726;9.370;2023-10-13T10:56:58;98461.72;;;29.38;29.65
78741;BME280;68062;48.726;9.370;2023-10-13T10:59:37;98448.41;;;29.28;30.06
78741;BME280;68062;48.726;9.370;2023-10-13T11:02:05;98446.03;;;29.04;30.87
78741;BME280;68062;48.726;9.370;2023-10-13T11:04:34;98444.13;;;28.62;31.02
78741;BME280;68062;48.726;9.370;2023-10-13T11:07:06;98441.34;;;28.08;30.73
78741;BME280;68062;48.726;9.370;2023-10-13T11:09:35;98434.78;;;27.91;31.07
78741;BME280;68062;48.726;9.370;2023-10-13T11:12:12;98427.09;;;27.54;32.54
78741;BME280;68062;48.726;9.370;2023-10-13T11:14:59;98431.03;;;27.48;32.87
78741;BME280;68062;48.726;9.370;2023-10-13T11:17:27;98418.47;;;27.52;32.41
78741;BME280;68062;48.726;9.370;2023-10-13T11:20:11;98411.25;;;27.76;32.71
78741;BME280;68062;48.726;9.370;2023-10-13T11:22:46;98414.94;;;28.19;31.91
78741;BME280;68062;48.726;9.370;2023-10-13T11:25:21;98409.31;;;28.89;28.70
78741;BME280;68062;48.726;9.370;2023-10-13T11:27:56;98406.34;;;29.35;28.46
78741;BME280;68062;48.726;9.370;2023-10-13T11:30:25;98391.78;;;29.41;27.47
78741;BME280;68062;48.726;9.370;2023-10-13T11:33:03;98395.22;;;29.62;27.92
78741;BME280;68062;48.726;9.370;2023-10-13T11:35:31;98392.91;;;28.96;28.22
78741;BME280;68062;48.726;9.370;2023-10-13T11:38:12;98398.91;;;28.76;27.92
78741;BME280;68062;48.726;9.370;2023-10-13T11:40:40;98392.03;;;28.74;27.96
78741;BME280;68062;48.726;9.370;2023-10-13T11:43:24;98387.97;;;28.70;27.21
78741;BME280;68062;48.726;9.370;2023-10-13T11:45:51;98395.06;;;29.33;27.26
78741;BME280;68062;48.726;9.370;2023-10-13T11:48:22;98384.53;;;29.84;26.75
78741;BME280;68062;48.726;9.370;2023-10-13T11:51:00;98380.91;;;30.75;26.75
78741;BME280;68062;48.726;9.370;2023-10-13T11:53:27;98383.81;;;31.01;25.50
78741;BME280;68062;48.726;9.370;2023-10-13T11:55:56;98377.53;;;30.92;25.29
78741;BME280;68062;48.726;9.370;2023-10-13T11:58:22;98367.81;;;30.63;25.00
78741;BME280;68062;48.726;9.370;2023-10-13T12:00:49;98368.44;;;31.05;25.02
78741;BME280;68062;48.726;9.370;2023-10-13T12:03:28;98356.66;;;31.55;24.92
78741;BME280;68062;48.726;9.370;2023-10-13T12:06:12;98352.25;;;32.20;24.50
78741;BME280;68062;48.726;9.370;2023-10-13T12:08:58;98352.09;;;32.21;23.88
78741;BME280;68062;48.726;9.370;2023-10-13T12:11:38;98341.41;;;32.31;24.03
78741;BME280;68062;48.726;9.370;2023-10-13T12:14:07;98338.94;;;32.74;23.54
78741;BME280;68062;48.726;9.370;2023-10-13T12:16:43;98335.56;;;33.25;23.12
78741;BME280;68062;48.726;9.370;2023-10-13T12:19:15;98333.03;;;33.15;22.58
78741;BME280;68062;48.726;9.370;2023-10-13T12:21:42;98336.22;;;32.66;23.19
78741;BME280;68062;48.726;9.370;2023-10-13T12:24:11;98329.78;;;32.32;23.37
78741;BME280;68062;48.726;9.370;2023-10-13T12:26:48;98321.34;;;32.37;23.58
78741;BME280;68062;48.726;9.370;2023-10-13T12:29:23;98323.50;;;32.05;23.85
78741;BME280;68062;48.726;9.370;2023-10-13T12:31:54;98320.72;;;32.07;24.15
78741;BME280;68062;48.726;9.370;2023-10-13T12:34:35;98327.63;;;31.53;24.53
78741;BME280;68062;48.726;9.370;2023-10-13T12:37:20;98315.41;;;31.33;24.80
78741;BME280;68062;48.726;9.370;2023-10-13T12:40:05;98306.47;;;31.24;24.58
78741;BME280;68062;48.726;9.370;2023-10-13T12:42:50;98292.38;;;31.23;25.17
78741;BME280;68062;48.726;9.370;2023-10-13T12:45:38;98291.22;;;31.36;25.10
78741;BME280;68062;48.726;9.370;2023-10-13T12:48:22;98293.19;;;31.34;24.91
78741;BME280;68062;48.726;9.370;2023-10-13T12:51:04;98281.94;;;31.02;24.99
78741;BME280;68062;48.726;9.370;2023-10-13T12:53:45;98285.00;;;30.60;25.32
78741;BME280;68062;48.726;9.370;2023-10-13T12:56:13;98285.50;;;30.83;25.66
78741;BME280;68062;48.726;9.370;2023-10-13T12:58:41;98284.19;;;31.07;25.14
78741;BME280;68062;48.726;9.370;2023-10-13T13:01:17;98279.22;;;32.14;24.33
78741;BME280;68062;48.726;9.370;2023-10-13T13:03:46;98277.03;;;32.09;24.62
78741;BME280;68062;48.726;9.370;2023-10-13T13:06:18;98266.25;;;32.11;24.54
78741;BME280;68062;48.726;9.370;2023-10-13T13:08:50;98260.84;;;32.03;24.38
78741;BME280;68062;48.726;9.370;2023-10-13T13:11:17;98269.88;;;32.28;24.65
78741;BME280;68062;48.726;9.370;2023-10-13T13:13:44;98262.38;;;32.68;24.29
78741;BME280;68062;48.726;9.370;2023-10-13T13:16:11;98265.28;;;32.56;23.88
78741;BME280;68062;48.726;9.370;2023-10-13T13:18:38;98267.19;;;32.28;24.54
78741;BME280;68062;48.726;9.370;2023-10-13T13:21:05;98239.44;;;31.86;24.65
78741;BME280;68062;48.726;9.370;2023-10-13T13:23:38;98251.28;;;31.27;25.71
78741;BME280;68062;48.726;9.370;2023-10-13T13:26:06;98249.69;;;31.35;25.63
78741;BME280;68062;48.726;9.370;2023-10-13T13:28:41;98246.97;;;31.17;25.41
78741;BME280;68062;48.726;9.370;2023-10-13T13:31:07;98253.13;;;31.45;26.11
78741;BME280;68062;48.726;9.370;2023-10-13T13:33:34;98234.50;;;31.27;25.29
78741;BME280;68062;48.726;9.370;2023-10-13T13:36:04;98240.19;;;31.32;25.71
78741;BME280;68062;48.726;9.370;2023-10-13T13:38:31;98228.09;;;31.20;25.60